Time;durP1;ratioP1;P1;durP2;ratioP2;P2;SDS_P1;SDS_P2;PMS_P1;PMS_P2;Temp;Humidity;BMP_temperature;BMP_pressure;BME280_temperature;BME280_humidity;BME280_pressure;Samples;Min_cycle;Max_cycle;Signal;HPM_P1;HPM_P2
2022/12/19 00:01:19;;;;;;;2.85;2.65;;;;;;;;;;5054918;28;20037;-34
2022/12/19 00:03:46;;;;;;;2.50;2.28;;;;;;;;;;5054708;28;20124;-32
2022/12/19 00:06:13;;;;;;;3.15;2.65;;;;;;;;;;5053854;28;20032;-30
2022/12/19 00:08:43;;;;;;;2.95;2.75;;;;;;;;;;5054868;28;20017;-32
2022/12/19 00:11:11;;;;;;;2.70;2.50;;;;;;;;;;5054797;28;20028;-30
2022/12/19 00:13:37;;;;;;;3.03;2.83;;;;;;;;;;5054999;28;20025;-30
2022/12/19 00:16:05;;;;;;;2.50;2.30;;;;;;;;;;5054709;28;20031;-31
2022/12/19 00:18:31;;;;;;;2.80;2.60;;;;;;;;;;5054820;28;20029;-29
2022/12/19 00:20:59;;;;;;;2.50;2.30;;;;;;;;;;5054713;28;20033;-31
2022/12/19 00:23:25;;;;;;;2.58;2.38;;;;;;;;;;5053660;28;20515;-30
2022/12/19 00:25:51;;;;;;;2.65;2.45;;;;;;;;;;5054827;28;20036;-31
2022/12/19 00:28:18;;;;;;;3.17;2.92;;;;;;;;;;5055379;28;20029;-31
2022/12/19 00:30:44;;;;;;;3.10;2.83;;;;;;;;;;5054574;28;20086;-32
2022/12/19 00:33:10;;;;;;;2.42;2.22;;;;;;;;;;5054745;28;20037;-31
2022/12/19 00:35:36;;;;;;;2.25;2.05;;;;;;;;;;5054772;28;20042;-30
2022/12/19 00:38:03;;;;;;;2.60;2.40;;;;;;;;;;5054093;28;20028;-31
2022/12/19 00:40:29;;;;;;;2.95;2.65;;;;;;;;;;5054796;28;20451;-31
2022/12/19 00:42:55;;;;;;;2.97;2.72;;;;;;;;;;5054410;28;20040;-30
2022/12/19 00:45:21;;;;;;;3.35;3.05;;;;;;;;;;5054680;28;20410;-30
2022/12/19 00:47:47;;;;;;;2.55;2.35;;;;;;;;;;5054953;28;20029;-30
2022/12/19 00:50:14;;;;;;;2.92;2.60;;;;;;;;;;5054365;28;20029;-30
2022/12/19 00:52:40;;;;;;;3.67;3.35;;;;;;;;;;5054518;28;20063;-32
2022/12/19 00:55:06;;;;;;;3.05;2.60;;;;;;;;;;5054298;28;20055;-31
2022/12/19 00:57:33;;;;;;;2.28;2.08;;;;;;;;;;5054249;28;20067;-31
2022/12/19 00:59:59;;;;;;;2.53;2.33;;;;;;;;;;5054605;28;20025;-32
2022/12/19 01:02:25;;;;;;;2.75;2.55;;;;;;;;;;5054186;28;20029;-30
2022/12/19 01:04:52;;;;;;;2.80;2.40;;;;;;;;;;5053977;28;20448;-30
2022/12/19 01:07:18;;;;;;;2.60;2.40;;;;;;;;;;5054790;28;20032;-31
2022/12/19 01:09:44;;;;;;;3.05;2.83;;;;;;;;;;5054122;28;20451;-30
2022/12/19 01:14:56;;;;;;;3.20;2.97;;;;;;;;;;5054472;28;20128;-32
2022/12/19 01:17:23;;;;;;;2.88;2.67;;;;;;;;;;5054116;28;20035;-31
2022/12/19 01:19:49;;;;;;;2.78;2.58;;;;;;;;;;5054393;28;20021;-32
2022/12/19 01:22:15;;;;;;;2.72;2.45;;;;;;;;;;5054055;28;20365;-32
2022/12/19 01:24:41;;;;;;;3.35;2.88;;;;;;;;;;5054034;28;20029;-33
2022/12/19 01:27:08;;;;;;;3.35;2.72;;;;;;;;;;5054313;28;20025;-32
2022/12/19 01:29:34;;;;;;;2.65;2.45;;;;;;;;;;5054303;28;20033;-31
2022/12/19 01:32:00;;;;;;;2.80;2.60;;;;;;;;;;5053899;28;20138;-31
2022/12/19 01:34:27;;;;;;;2.53;2.33;;;;;;;;;;5054260;28;20376;-32
2022/12/19 01:36:53;;;;;;;2.58;2.38;;;;;;;;;;5055003;28;20369;-32
2022/12/19 01:39:19;;;;;;;2.60;2.40;;;;;;;;;;5053992;28;20025;-30
2022/12/19 01:41:45;;;;;;;3.10;2.88;;;;;;;;;;5054195;28;20029;-30
2022/12/19 01:44:12;;;;;;;2.80;2.60;;;;;;;;;;5054023;28;20325;-32
2022/12/19 01:46:40;;;;;;;2.95;2.70;;;;;;;;;;5053850;28;20049;-30
2022/12/19 01:49:12;;;;;;;2.72;2.53;;;;;;;;;;5053866;28;20017;-32
2022/12/19 01:51:43;;;;;;;2.45;2.25;;;;;;;;;;5056880;28;20056;-30
2022/12/19 01:54:11;;;;;;;2.63;2.42;;;;;;;;;;5057339;28;20028;-33
2022/12/19 01:56:44;;;;;;;2.53;2.30;;;;;;;;;;5057615;28;20028;-32
2022/12/19 01:59:20;;;;;;;2.50;2.30;;;;;;;;;;5057254;28;20040;-31
2022/12/19 02:01:46;;;;;;;2.63;2.42;;;;;;;;;;5057774;28;20029;-30
2022/12/19 02:04:13;;;;;;;3.33;2.58;;;;;;;;;;5058882;28;20075;-31
2022/12/19 02:06:41;;;;;;;2.35;2.15;;;;;;;;;;5057130;28;20021;-30
2022/12/19 02:09:08;;;;;;;2.75;2.53;;;;;;;;;;5057381;28;20032;-30
2022/12/19 02:11:34;;;;;;;2.67;2.47;;;;;;;;;;5057060;28;20025;-30
2022/12/19 02:14:00;;;;;;;3.00;2.80;;;;;;;;;;5056895;28;20437;-31
2022/12/19 02:16:26;;;;;;;3.20;2.90;;;;;;;;;;5056955;28;20036;-30
2022/12/19 02:18:55;;;;;;;3.28;3.08;;;;;;;;;;5056895;28;20472;-31
2022/12/19 02:21:34;;;;;;;2.63;2.42;;;;;;;;;;5057146;28;20025;-30
2022/12/19 02:24:09;;;;;;;2.47;2.25;;;;;;;;;;5056686;28;20460;-30
2022/12/19 02:26:38;;;;;;;2.45;2.28;;;;;;;;;;5057054;28;20100;-30
2022/12/19 02:29:12;;;;;;;2.60;2.40;;;;;;;;;;5056757;28;20085;-30
2022/12/19 02:31:43;;;;;;;2.92;2.72;;;;;;;;;;5056749;28;20025;-33
2022/12/19 02:34:16;;;;;;;2.70;2.50;;;;;;;;;;5056572;28;20036;-31
2022/12/19 02:36:45;;;;;;;2.40;2.20;;;;;;;;;;5056593;28;20032;-31
2022/12/19 02:39:15;;;;;;;2.65;2.45;;;;;;;;;;5056821;28;20352;-30
2022/12/19 02:41:44;;;;;;;2.67;2.47;;;;;;;;;;5056758;28;20024;-30
2022/12/19 02:44:13;;;;;;;2.72;2.47;;;;;;;;;;5055366;28;20029;-32
2022/12/19 02:46:39;;;;;;;2.42;2.22;;;;;;;;;;5056650;28;20090;-30
2022/12/19 02:49:06;;;;;;;2.30;2.10;;;;;;;;;;5055399;28;20021;-30
2022/12/19 02:51:32;;;;;;;3.00;2.80;;;;;;;;;;5056564;28;20021;-30
2022/12/19 02:53:58;;;;;;;2.88;2.67;;;;;;;;;;5055211;28;20029;-30
2022/12/19 02:56:47;;;;;;;2.90;2.67;;;;;;;;;;5056199;28;20021;-31
2022/12/19 02:59:32;;;;;;;2.67;2.47;;;;;;;;;;5056463;28;20067;-30
2022/12/19 03:02:04;;;;;;;2.20;2.10;;;;;;;;;;5056210;28;20029;-32
2022/12/19 03:04:41;;;;;;;2.35;2.15;;;;;;;;;;5056559;28;20037;-32
2022/12/19 03:07:16;;;;;;;2.55;2.35;;;;;;;;;;5055778;28;20056;-31
2022/12/19 03:09:45;;;;;;;2.30;2.10;;;;;;;;;;5055976;28;20408;-30
2022/12/19 03:12:16;;;;;;;3.00;2.80;;;;;;;;;;5056278;28;20448;-30
2022/12/19 03:14:43;;;;;;;2.45;2.25;;;;;;;;;;5056479;28;20451;-31
2022/12/19 03:17:09;;;;;;;2.83;2.63;;;;;;;;;;5056377;28;20032;-30
2022/12/19 03:19:37;;;;;;;2.72;2.53;;;;;;;;;;5055780;28;20064;-32
2022/12/19 03:22:04;;;;;;;2.45;2.25;;;;;;;;;;5055636;28;20020;-33
2022/12/19 03:24:30;;;;;;;2.80;2.60;;;;;;;;;;5055868;28;20032;-30
2022/12/19 03:27:09;;;;;;;2.88;2.67;;;;;;;;;;5055573;28;20118;-31
2022/12/19 03:29:38;;;;;;;2.38;2.20;;;;;;;;;;5055890;28;20020;-32
2022/12/19 03:32:06;;;;;;;2.70;2.50;;;;;;;;;;5055436;28;20463;-31
2022/12/19 03:34:36;;;;;;;2.83;2.63;;;;;;;;;;5054927;28;20051;-30
2022/12/19 03:37:03;;;;;;;2.63;2.42;;;;;;;;;;5055382;28;20028;-30
2022/12/19 03:39:31;;;;;;;2.63;2.40;;;;;;;;;;5055655;28;20036;-32
2022/12/19 03:44:43;;;;;;;2.75;2.50;;;;;;;;;;5055774;28;20047;-30
2022/12/19 03:47:15;;;;;;;2.45;2.33;;;;;;;;;;5055258;28;20364;-31
2022/12/19 03:49:41;;;;;;;;;;;;;;;;;;5056206;28;20032;-30
2022/12/19 03:52:19;;;;;;;3.63;2.67;;;;;;;;;;5055018;28;19934;-33
2022/12/19 03:54:50;;;;;;;2.75;2.55;;;;;;;;;;5055051;28;20079;-30
2022/12/19 03:57:16;;;;;;;;;;;;;;;;;;5055770;28;20387;-32
2022/12/19 03:59:55;;;;;;;2.55;2.35;;;;;;;;;;5055314;28;19904;-32
2022/12/19 04:02:22;;;;;;;2.67;2.47;;;;;;;;;;5055221;28;20119;-31
2022/12/19 04:04:51;;;;;;;2.38;2.17;;;;;;;;;;5055120;28;20053;-32
2022/12/19 04:07:18;;;;;;;3.25;2.15;;;;;;;;;;5054786;28;20049;-31
2022/12/19 04:09:45;;;;;;;2.50;2.30;;;;;;;;;;5055135;28;20032;-30
2022/12/19 04:12:17;;;;;;;2.97;2.78;;;;;;;;;;5054957;28;20020;-31
2022/12/19 04:14:43;;;;;;;2.40;2.20;;;;;;;;;;5054296;28;20028;-30
2022/12/19 04:17:22;;;;;;;2.58;2.40;;;;;;;;;;5054996;28;20131;-31
2022/12/19 04:19:48;;;;;;;2.25;2.05;;;;;;;;;;5054758;28;20078;-30
2022/12/19 04:22:17;;;;;;;2.65;2.45;;;;;;;;;;5054870;28;20360;-30
2022/12/19 04:24:45;;;;;;;2.10;1.90;;;;;;;;;;5054579;28;20021;-30
2022/12/19 04:27:12;;;;;;;2.50;2.30;;;;;;;;;;5055154;28;20032;-32
2022/12/19 04:29:39;;;;;;;2.40;2.20;;;;;;;;;;5054916;28;20025;-31
2022/12/19 04:32:06;;;;;;;2.30;2.10;;;;;;;;;;5054497;28;20033;-31
2022/12/19 04:34:32;;;;;;;4.03;2.60;;;;;;;;;;5054552;28;20025;-31
2022/12/19 04:37:03;;;;;;;2.30;2.20;;;;;;;;;;5054523;28;20115;-32
2022/12/19 04:39:29;;;;;;;2.33;2.13;;;;;;;;;;5054872;28;20036;-31
2022/12/19 04:41:56;;;;;;;2.70;2.50;;;;;;;;;;5054339;28;20063;-32
2022/12/19 04:44:22;;;;;;;2.42;2.22;;;;;;;;;;5054654;28;20108;-35
2022/12/19 04:46:48;;;;;;;2.70;2.50;;;;;;;;;;5054670;28;20029;-30
2022/12/19 04:49:14;;;;;;;2.78;2.58;;;;;;;;;;5054928;28;20132;-31
2022/12/19 04:51:40;;;;;;;2.67;2.47;;;;;;;;;;5054360;28;20024;-31
2022/12/19 04:54:06;;;;;;;2.80;2.60;;;;;;;;;;5054478;28;20025;-31
2022/12/19 04:56:32;;;;;;;2.78;2.58;;;;;;;;;;5053463;28;20112;-31
2022/12/19 04:58:59;;;;;;;3.05;2.75;;;;;;;;;;5053306;28;20017;-31
2022/12/19 05:01:26;;;;;;;2.70;2.50;;;;;;;;;;5054424;28;20150;-31
2022/12/19 05:03:52;;;;;;;3.00;2.80;;;;;;;;;;5054127;28;20021;-31
2022/12/19 05:06:19;;;;;;;4.22;2.40;;;;;;;;;;5054320;28;20130;-31
2022/12/19 05:08:45;;;;;;;2.85;2.65;;;;;;;;;;5054420;28;20020;-31
2022/12/19 05:11:12;;;;;;;2.88;2.67;;;;;;;;;;5054490;28;20021;-32
2022/12/19 05:13:39;;;;;;;2.50;2.30;;;;;;;;;;5053001;28;20116;-32
2022/12/19 05:16:07;;;;;;;2.40;2.20;;;;;;;;;;5053910;28;20112;-31
2022/12/19 05:18:34;;;;;;;3.60;3.28;;;;;;;;;;5053972;28;20418;-30
2022/12/19 05:21:00;;;;;;;2.72;2.53;;;;;;;;;;5053909;28;20083;-33
2022/12/19 05:23:26;;;;;;;2.70;2.50;;;;;;;;;;5053742;28;20033;-30
2022/12/19 05:25:53;;;;;;;2.72;2.53;;;;;;;;;;5057601;28;20067;-31
2022/12/19 05:28:19;;;;;;;3.03;2.38;;;;;;;;;;5057711;28;20520;-31
2022/12/19 05:30:45;;;;;;;3.25;2.30;;;;;;;;;;5057659;28;20029;-32
2022/12/19 05:33:11;;;;;;;3.03;2.83;;;;;;;;;;5058465;28;20040;-33
2022/12/19 05:35:38;;;;;;;3.33;2.53;;;;;;;;;;5057949;28;20029;-31
2022/12/19 05:38:04;;;;;;;3.20;2.90;;;;;;;;;;5057920;28;20036;-31
2022/12/19 05:40:30;;;;;;;2.83;2.63;;;;;;;;;;5057653;28;20504;-33
2022/12/19 05:42:56;;;;;;;2.63;2.42;;;;;;;;;;5057463;28;20025;-34
2022/12/19 05:45:23;;;;;;;2.63;2.42;;;;;;;;;;5057486;28;20037;-31
2022/12/19 05:47:49;;;;;;;2.65;2.45;;;;;;;;;;5057384;28;20025;-31
2022/12/19 05:50:16;;;;;;;2.63;2.42;;;;;;;;;;5056292;28;20108;-32
2022/12/19 05:52:42;;;;;;;4.25;2.28;;;;;;;;;;5057109;28;20021;-32
2022/12/19 05:55:09;;;;;;;2.65;2.45;;;;;;;;;;5057118;28;20036;-31
2022/12/19 05:57:35;;;;;;;2.60;2.40;;;;;;;;;;5057040;28;20033;-30
2022/12/19 06:00:01;;;;;;;2.13;2.03;;;;;;;;;;5057339;28;20037;-30
2022/12/19 06:02:31;;;;;;;2.70;2.50;;;;;;;;;;5519713;22;20068;-31
2022/12/19 06:04:57;;;;;;;2.28;2.10;;;;;;;;;;5056945;28;20332;-31
2022/12/19 06:07:23;;;;;;;5.47;2.75;;;;;;;;;;5056844;28;20028;-31
2022/12/19 06:09:50;;;;;;;6.43;2.90;;;;;;;;;;5057047;28;20328;-32
2022/12/19 06:12:16;;;;;;;3.55;2.33;;;;;;;;;;5056655;28;20017;-32
2022/12/19 06:14:42;;;;;;;2.50;2.30;;;;;;;;;;5056647;28;20029;-32
2022/12/19 06:17:08;;;;;;;2.30;2.10;;;;;;;;;;5056670;28;20041;-32
2022/12/19 06:19:34;;;;;;;2.80;2.60;;;;;;;;;;5056500;28;20029;-31
2022/12/19 06:22:01;;;;;;;2.92;2.47;;;;;;;;;;5056440;28;20033;-32
2022/12/19 06:24:27;;;;;;;4.15;3.33;;;;;;;;;;5056732;28;20159;-33
2022/12/19 06:26:54;;;;;;;4.50;2.65;;;;;;;;;;5056437;28;20029;-37
2022/12/19 06:29:20;;;;;;;4.10;2.42;;;;;;;;;;5056626;28;20105;-31
2022/12/19 06:31:46;;;;;;;5.22;2.63;;;;;;;;;;5056228;28;20028;-31
2022/12/19 06:34:12;;;;;;;3.72;3.05;;;;;;;;;;5056573;28;20435;-31
2022/12/19 06:36:41;;;;;;;3.92;2.85;;;;;;;;;;5055683;28;20047;-34
2022/12/19 06:39:12;;;;;;;4.95;2.53;;;;;;;;;;5056238;28;20025;-32
2022/12/19 06:44:22;;;;;;;5.50;2.90;;;;;;;;;;5056313;28;20071;-31
2022/12/19 06:46:49;;;;;;;4.10;2.63;;;;;;;;;;5055966;28;20024;-31
2022/12/19 06:49:15;;;;;;;11.43;2.55;;;;;;;;;;5055959;28;20044;-31
2022/12/19 06:51:41;;;;;;;4.75;2.70;;;;;;;;;;5055810;28;20029;-33
2022/12/19 06:54:07;;;;;;;5.70;2.83;;;;;;;;;;5055901;28;20024;-32
2022/12/19 06:56:37;;;;;;;5.10;2.10;;;;;;;;;;5055831;28;20051;-31
2022/12/19 06:59:03;;;;;;;11.60;2.45;;;;;;;;;;5056016;28;20032;-31
2022/12/19 07:01:48;;;;;;;3.85;2.42;;;;;;;;;;5056018;28;20098;-31
2022/12/19 07:04:15;;;;;;;4.65;2.50;;;;;;;;;;5055654;28;20142;-31
2022/12/19 07:06:42;;;;;;;2.67;2.30;;;;;;;;;;5055808;28;20024;-31
2022/12/19 07:09:08;;;;;;;4.75;2.42;;;;;;;;;;5056414;28;20079;-31
2022/12/19 07:11:34;;;;;;;4.97;2.20;;;;;;;;;;5056044;28;20027;-31
2022/12/19 07:14:00;;;;;;;2.63;2.42;;;;;;;;;;5055692;28;20033;-31
2022/12/19 07:16:27;;;;;;;3.78;2.63;;;;;;;;;;5055999;28;20032;-31
2022/12/19 07:18:53;;;;;;;2.60;2.10;;;;;;;;;;5055817;28;20021;-30
2022/12/19 07:21:19;;;;;;;7.40;2.53;;;;;;;;;;5055669;28;20029;-31
2022/12/19 07:23:45;;;;;;;3.30;2.28;;;;;;;;;;5055528;28;20452;-32
2022/12/19 07:26:12;;;;;;;6.15;2.13;;;;;;;;;;5055784;28;20025;-31
2022/12/19 07:28:39;;;;;;;6.00;2.55;;;;;;;;;;5055934;28;20391;-31
2022/12/19 07:31:05;;;;;;;4.13;2.35;;;;;;;;;;5055739;28;20086;-31
2022/12/19 07:33:31;;;;;;;5.05;2.90;;;;;;;;;;5055657;28;20032;-32
2022/12/19 07:35:57;;;;;;;2.33;2.13;;;;;;;;;;5055537;28;20478;-30
2022/12/19 07:38:23;;;;;;;3.85;2.38;;;;;;;;;;5055106;28;20463;-31
2022/12/19 07:40:50;;;;;;;5.80;2.47;;;;;;;;;;5055239;28;20033;-31
2022/12/19 07:43:16;;;;;;;2.95;2.55;;;;;;;;;;5055107;28;20079;-30
2022/12/19 07:45:42;;;;;;;7.38;3.03;;;;;;;;;;5055125;28;20033;-31
2022/12/19 07:48:09;;;;;;;3.90;2.40;;;;;;;;;;5054157;28;20036;-30
2022/12/19 07:50:35;;;;;;;4.93;2.33;;;;;;;;;;5055025;28;20082;-31
2022/12/19 07:53:01;;;;;;;4.53;2.30;;;;;;;;;;5055134;28;20348;-32
2022/12/19 07:55:28;;;;;;;4.35;2.50;;;;;;;;;;5055443;28;20036;-30
2022/12/19 07:57:54;;;;;;;3.28;2.60;;;;;;;;;;5054968;28;20021;-31
2022/12/19 08:00:22;;;;;;;6.15;2.72;;;;;;;;;;5055190;28;20021;-32
2022/12/19 08:02:50;;;;;;;5.05;2.55;;;;;;;;;;5053386;28;20056;-31
2022/12/19 08:05:22;;;;;;;8.10;2.50;;;;;;;;;;5053707;28;20371;-38
2022/12/19 08:07:49;;;;;;;5.78;2.35;;;;;;;;;;5055156;28;20432;-30
2022/12/19 08:10:15;;;;;;;4.35;2.38;;;;;;;;;;5054986;28;20039;-32
2022/12/19 08:12:42;;;;;;;4.28;2.13;;;;;;;;;;5054931;28;20413;-30
2022/12/19 08:15:09;;;;;;;2.20;1.98;;;;;;;;;;5054616;28;20036;-31
2022/12/19 08:17:36;;;;;;;2.95;2.38;;;;;;;;;;5055032;28;20039;-31
2022/12/19 08:20:05;;;;;;;4.03;2.55;;;;;;;;;;5055401;28;20079;-31
2022/12/19 08:22:31;;;;;;;4.88;3.28;;;;;;;;;;5054766;28;20033;-30
2022/12/19 08:24:58;;;;;;;8.13;2.30;;;;;;;;;;5054806;28;20070;-31
2022/12/19 08:27:26;;;;;;;10.68;2.75;;;;;;;;;;5053764;28;20124;-31
2022/12/19 08:29:53;;;;;;;10.23;3.47;;;;;;;;;;5053460;28;20029;-30
2022/12/19 08:32:21;;;;;;;8.20;3.28;;;;;;;;;;5054270;28;20021;-30
2022/12/19 08:34:49;;;;;;;5.18;2.80;;;;;;;;;;5054500;28;20432;-31
2022/12/19 08:37:17;;;;;;;7.18;2.72;;;;;;;;;;5054339;28;20024;-32
2022/12/19 08:39:44;;;;;;;9.88;3.72;;;;;;;;;;5054354;28;20028;-31
2022/12/19 08:42:11;;;;;;;6.95;2.83;;;;;;;;;;5054574;28;20034;-32
2022/12/19 08:44:38;;;;;;;3.95;2.63;;;;;;;;;;5054492;28;20031;-31
2022/12/19 08:47:05;;;;;;;4.07;2.90;;;;;;;;;;5054566;28;20118;-31
2022/12/19 08:49:32;;;;;;;11.00;2.38;;;;;;;;;;5054484;28;20391;-33
2022/12/19 08:51:59;;;;;;;5.95;2.80;;;;;;;;;;5054203;28;20022;-31
2022/12/19 08:54:27;;;;;;;5.97;2.42;;;;;;;;;;5054486;28;20025;-32
2022/12/19 08:56:54;;;;;;;7.75;3.22;;;;;;;;;;5054447;28;20399;-32
2022/12/19 08:59:21;;;;;;;9.27;2.65;;;;;;;;;;5055417;28;20398;-31
2022/12/19 09:01:49;;;;;;;10.70;3.38;;;;;;;;;;5057199;28;20025;-31
2022/12/19 09:04:18;;;;;;;17.23;3.08;;;;;;;;;;5057878;28;20360;-31
2022/12/19 09:06:51;;;;;;;8.57;2.53;;;;;;;;;;5057155;28;20542;-31
2022/12/19 09:09:18;;;;;;;14.57;3.33;;;;;;;;;;5058370;28;20411;-32
2022/12/19 09:11:44;;;;;;;14.30;3.00;;;;;;;;;;5058523;28;20025;-32
2022/12/19 09:14:12;;;;;;;2.38;1.88;;;;;;;;;;5058563;28;20515;-32
2022/12/19 09:16:40;;;;;;;15.30;3.10;;;;;;;;;;5057908;28;20037;-31
2022/12/19 09:19:08;;;;;;;4.15;2.70;;;;;;;;;;5057818;28;20062;-32
2022/12/19 09:21:34;;;;;;;6.82;3.20;;;;;;;;;;5057893;28;20033;-31
2022/12/19 09:24:03;;;;;;;21.02;3.35;;;;;;;;;;5057649;28;20033;-31
2022/12/19 09:26:29;;;;;;;9.82;3.40;;;;;;;;;;5057935;28;20032;-32
2022/12/19 09:28:58;;;;;;;9.93;2.72;;;;;;;;;;5057848;28;20352;-31
2022/12/19 09:31:25;;;;;;;12.80;3.28;;;;;;;;;;5057608;28;20094;-33
2022/12/19 09:33:53;;;;;;;22.63;3.28;;;;;;;;;;5057510;28;20032;-32
2022/12/19 09:36:21;;;;;;;10.82;3.83;;;;;;;;;;5057481;28;20443;-31
2022/12/19 09:38:49;;;;;;;14.05;3.38;;;;;;;;;;5056629;28;20120;-32
2022/12/19 09:41:19;;;;;;;15.98;3.22;;;;;;;;;;5057355;28;20033;-31
2022/12/19 09:44:02;;;;;;;6.65;3.13;;;;;;;;;;5057278;28;20027;-30
2022/12/19 09:46:48;;;;;;;12.68;3.20;;;;;;;;;;5057594;28;20359;-32
2022/12/19 09:49:19;;;;;;;20.38;2.92;;;;;;;;;;5057384;28;20096;-31
2022/12/19 09:51:49;;;;;;;6.53;2.63;;;;;;;;;;5057503;28;20025;-31
2022/12/19 09:54:34;;;;;;;13.83;3.00;;;;;;;;;;5056260;28;20025;-32
2022/12/19 09:57:04;;;;;;;12.15;3.00;;;;;;;;;;5057719;28;20390;-32
2022/12/19 09:59:32;;;;;;;11.90;2.92;;;;;;;;;;5057141;28;20040;-32
2022/12/19 10:02:04;;;;;;;11.45;3.33;;;;;;;;;;5057017;28;20399;-32
2022/12/19 10:04:34;;;;;;;11.85;3.60;;;;;;;;;;5017763;28;20041;-31
2022/12/19 10:07:03;;;;;;;10.27;3.92;;;;;;;;;;5017317;28;20022;-32
2022/12/19 10:09:33;;;;;;;6.90;3.00;;;;;;;;;;5016294;28;20030;-31
2022/12/19 10:12:13;;;;;;;10.55;2.90;;;;;;;;;;5016378;28;20068;-31
2022/12/19 10:15:03;;;;;;;8.70;2.90;;;;;;;;;;5017501;28;20030;-31
2022/12/19 10:17:30;;;;;;;5.47;2.58;;;;;;;;;;5017447;28;20304;-31
2022/12/19 10:20:15;;;;;;;10.05;2.95;;;;;;;;;;5017272;28;20040;-32
2022/12/19 10:22:53;;;;;;;7.45;2.50;;;;;;;;;;5016913;28;20041;-32
2022/12/19 10:25:29;;;;;;;5.35;2.63;;;;;;;;;;5016931;28;20037;-32
2022/12/19 10:28:07;;;;;;;18.38;4.10;;;;;;;;;;5015900;28;20030;-32
2022/12/19 10:30:37;;;;;;;19.38;3.15;;;;;;;;;;5015806;28;20136;-31
2022/12/19 10:33:07;;;;;;;9.18;3.33;;;;;;;;;;5016469;28;20040;-31
2022/12/19 10:35:36;;;;;;;16.55;3.45;;;;;;;;;;5017320;28;20037;-32
2022/12/19 10:38:22;;;;;;;12.27;4.47;;;;;;;;;;5016840;28;20521;-32
2022/12/19 10:40:52;;;;;;;16.33;3.47;;;;;;;;;;5015693;28;20044;-32
2022/12/19 10:43:42;;;;;;;7.45;3.03;;;;;;;;;;5016647;28;20464;-31
2022/12/19 10:46:26;;;;;;;9.93;3.33;;;;;;;;;;5016635;28;20026;-31
2022/12/19 10:48:54;;;;;;;8.30;2.53;;;;;;;;;;5016437;28;20026;-31
2022/12/19 10:51:27;;;;;;;14.15;3.30;;;;;;;;;;5015570;28;20113;-31
2022/12/19 10:53:55;;;;;;;8.00;2.63;;;;;;;;;;5016538;28;20025;-32
2022/12/19 10:56:25;;;;;;;6.13;2.65;;;;;;;;;;5016500;28;20045;-31
2022/12/19 10:58:56;;;;;;;14.52;3.38;;;;;;;;;;5016137;28;20052;-33
2022/12/19 11:01:35;;;;;;;8.45;2.92;;;;;;;;;;5016307;28;20033;-32
2022/12/19 11:04:21;;;;;;;10.15;2.55;;;;;;;;;;5049289;28;20123;-31
2022/12/19 11:07:03;;;;;;;10.57;3.05;;;;;;;;;;5055727;28;20059;-32
2022/12/19 11:09:32;;;;;;;12.00;3.45;;;;;;;;;;5055957;28;20028;-31
2022/12/19 11:12:12;;;;;;;14.55;3.55;;;;;;;;;;5055637;28;20039;-30
2022/12/19 11:14:41;;;;;;;13.88;2.78;;;;;;;;;;5055901;28;20076;-29
2022/12/19 11:17:25;;;;;;;13.05;3.08;;;;;;;;;;5055609;28;20085;-31
2022/12/19 11:19:52;;;;;;;11.45;2.70;;;;;;;;;;5055601;28;20025;-31
2022/12/19 11:22:28;;;;;;;13.68;2.90;;;;;;;;;;5054340;28;20041;-31
2022/12/19 11:24:58;;;;;;;8.10;2.85;;;;;;;;;;5055545;28;20040;-31
2022/12/19 11:27:30;;;;;;;25.05;4.15;;;;;;;;;;5055394;28;20082;-32
2022/12/19 11:29:58;;;;;;;10.73;2.70;;;;;;;;;;5055454;28;20025;-32
2022/12/19 11:32:35;;;;;;;7.55;3.03;;;;;;;;;;5055724;28;20131;-32
2022/12/19 11:35:03;;;;;;;10.80;2.55;;;;;;;;;;5055866;28;20041;-30
2022/12/19 11:37:51;;;;;;;9.93;3.65;;;;;;;;;;5054908;28;20021;-32
2022/12/19 11:40:36;;;;;;;17.48;3.88;;;;;;;;;;5055584;28;20459;-30
2022/12/19 11:43:11;;;;;;;10.63;2.63;;;;;;;;;;5055480;28;20058;-31
2022/12/19 11:45:50;;;;;;;12.80;3.53;;;;;;;;;;5055279;28;20079;-30
2022/12/19 11:48:21;;;;;;;11.30;3.10;;;;;;;;;;5055294;28;20086;-31
2022/12/19 11:51:00;;;;;;;11.75;3.55;;;;;;;;;;5053950;28;20417;-33
2022/12/19 11:53:33;;;;;;;8.40;2.85;;;;;;;;;;5054664;28;20096;-30
2022/12/19 11:56:12;;;;;;;22.08;5.00;;;;;;;;;;5054804;28;20029;-31
2022/12/19 11:58:40;;;;;;;20.13;5.05;;;;;;;;;;5054997;28;20037;-31
2022/12/19 12:01:09;;;;;;;14.48;4.32;;;;;;;;;;5054653;28;20460;-32
2022/12/19 12:03:43;;;;;;;6.75;3.17;;;;;;;;;;5054345;28;20045;-32
2022/12/19 12:06:13;;;;;;;12.07;2.97;;;;;;;;;;5054796;28;20048;-32
2022/12/19 12:08:46;;;;;;;11.88;2.60;;;;;;;;;;5054774;28;20032;-32
2022/12/19 12:11:29;;;;;;;8.82;2.85;;;;;;;;;;5054508;28;20125;-30
2022/12/19 12:13:57;;;;;;;6.93;2.40;;;;;;;;;;5054736;28;20042;-32
2022/12/19 12:16:29;;;;;;;12.82;3.00;;;;;;;;;;5054500;28;20033;-31
2022/12/19 12:19:18;;;;;;;8.32;3.45;;;;;;;;;;5054375;28;20036;-31
2022/12/19 12:21:51;;;;;;;13.75;2.78;;;;;;;;;;5042655;28;20468;-30
2022/12/19 12:24:29;;;;;;;18.92;3.13;;;;;;;;;;5054688;28;20032;-31
2022/12/19 12:27:02;;;;;;;10.60;3.63;;;;;;;;;;5054188;28;20391;-31
2022/12/19 12:29:37;;;;;;;11.52;2.90;;;;;;;;;;5054332;28;20064;-32
2022/12/19 12:32:42;;;;;;;5.97;2.47;;;;;;;;;;5054098;28;20356;-31
2022/12/19 12:35:21;;;;;;;11.13;3.00;;;;;;;;;;4992743;28;20113;-32
2022/12/19 12:38:01;;;;;;;8.82;2.85;;;;;;;;;;4993567;28;20030;-33
2022/12/19 12:40:45;;;;;;;7.05;2.25;;;;;;;;;;5033087;28;20037;-33
2022/12/19 12:43:29;;;;;;;8.30;2.90;;;;;;;;;;5054142;28;20374;-31
2022/12/19 12:45:55;;;;;;;8.07;2.60;;;;;;;;;;5054427;28;20044;-33
2022/12/19 12:48:25;;;;;;;13.35;3.05;;;;;;;;;;5054073;28;20055;-32
2022/12/19 12:50:52;;;;;;;12.40;3.10;;;;;;;;;;5054018;28;20170;-32
2022/12/19 12:53:21;;;;;;;10.93;3.00;;;;;;;;;;5054078;28;20025;-31
2022/12/19 12:55:48;;;;;;;13.30;3.05;;;;;;;;;;5053960;28;20025;-31
2022/12/19 12:58:34;;;;;;;4.55;2.67;;;;;;;;;;5053953;28;20033;-33
2022/12/19 13:01:17;;;;;;;12.15;3.17;;;;;;;;;;5054008;28;20040;-30
2022/12/19 13:04:05;;;;;;;18.10;3.28;;;;;;;;;;5053625;28;20080;-31
2022/12/19 13:06:36;;;;;;;7.28;2.83;;;;;;;;;;5053494;28;20128;-32
2022/12/19 13:09:07;;;;;;;12.55;3.13;;;;;;;;;;5053874;28;20051;-32
2022/12/19 13:14:42;;;;;;;22.35;3.20;;;;;;;;;;5054176;28;19968;-31
2022/12/19 13:17:18;;;;;;;16.38;5.90;;;;;;;;;;5054113;28;20033;-32
2022/12/19 13:20:17;;;;;;;8.65;2.90;;;;;;;;;;5053726;28;20025;-32
2022/12/19 13:22:45;;;;;;;9.07;3.25;;;;;;;;;;5053704;28;20083;-32
2022/12/19 13:25:39;;;;;;;9.35;3.13;;;;;;;;;;5053969;28;20442;-32
2022/12/19 13:28:09;;;;;;;9.98;2.67;;;;;;;;;;5031529;28;20427;-31
2022/12/19 13:30:55;;;;;;;14.38;3.05;;;;;;;;;;5053771;28;20092;-31
2022/12/19 13:33:25;;;;;;;18.45;3.63;;;;;;;;;;5053747;28;20044;-32
2022/12/19 13:35:54;;;;;;;13.48;3.38;;;;;;;;;;5053937;28;20470;-32
2022/12/19 13:38:25;;;;;;;18.80;3.50;;;;;;;;;;5054013;28;20329;-32
2022/12/19 13:40:52;;;;;;;;;;;;;;;;;;5054467;28;20063;-33
2022/12/19 13:46:18;;;;;;;13.35;3.17;;;;;;;;;;5056336;28;20371;-32
2022/12/19 13:48:51;;;;;;;16.73;3.50;;;;;;;;;;5057290;28;20029;-31
2022/12/19 13:51:18;;;;;;;18.00;4.43;;;;;;;;;;5057782;28;20037;-31
2022/12/19 13:53:46;;;;;;;18.30;3.90;;;;;;;;;;5057056;28;20078;-30
2022/12/19 13:56:17;;;;;;;20.88;3.97;;;;;;;;;;5057304;28;20086;-31
2022/12/19 13:58:49;;;;;;;17.73;3.40;;;;;;;;;;5057439;28;20072;-30
2022/12/19 14:01:18;;;;;;;17.02;3.28;;;;;;;;;;5057533;28;20024;-31
2022/12/19 14:03:46;;;;;;;15.63;2.75;;;;;;;;;;5056781;28;20098;-31
2022/12/19 14:06:15;;;;;;;17.70;3.47;;;;;;;;;;5056901;28;20033;-31
2022/12/19 14:08:44;;;;;;;19.60;3.53;;;;;;;;;;5057231;28;20029;-31
2022/12/19 14:11:14;;;;;;;11.27;3.00;;;;;;;;;;5057233;28;20478;-32
2022/12/19 14:16:52;;;;;;;13.35;3.47;;;;;;;;;;5056815;28;20044;-31
2022/12/19 14:19:19;;;;;;;13.60;2.83;;;;;;;;;;5056684;28;20045;-31
2022/12/19 14:21:45;;;;;;;16.73;3.92;;;;;;;;;;5056818;28;20033;-32
2022/12/19 14:24:15;;;;;;;9.95;3.45;;;;;;;;;;5056631;28;20024;-31
2022/12/19 14:26:42;;;;;;;17.40;2.90;;;;;;;;;;5055489;28;20101;-31
2022/12/19 14:29:19;;;;;;;13.25;3.17;;;;;;;;;;5056529;28;20025;-31
2022/12/19 14:31:46;;;;;;;9.80;3.30;;;;;;;;;;5056629;28;20104;-31
2022/12/19 14:34:19;;;;;;;10.30;3.05;;;;;;;;;;5056768;28;20109;-32
2022/12/19 14:36:55;;;;;;;15.23;2.92;;;;;;;;;;5055654;28;20040;-32
2022/12/19 14:39:22;;;;;;;19.33;3.33;;;;;;;;;;5056680;28;20036;-31
2022/12/19 14:45:04;;;;;;;13.60;2.90;;;;;;;;;;5056571;28;20467;-32
2022/12/19 14:47:34;;;;;;;11.48;2.88;;;;;;;;;;5043791;28;20041;-32
2022/12/19 14:50:01;;;;;;;12.50;2.67;;;;;;;;;;5056380;28;20025;-32
2022/12/19 14:52:33;;;;;;;12.57;2.83;;;;;;;;;;5056322;28;20017;-32
2022/12/19 14:55:18;;;;;;;10.85;2.63;;;;;;;;;;5056094;28;20029;-32
2022/12/19 14:57:44;;;;;;;19.95;2.70;;;;;;;;;;5055567;28;20032;-31
2022/12/19 15:00:24;;;;;;;12.32;2.75;;;;;;;;;;5055953;28;20040;-31
2022/12/19 15:02:51;;;;;;;9.45;2.75;;;;;;;;;;5055673;28;20059;-32
2022/12/19 15:05:18;;;;;;;14.00;3.28;;;;;;;;;;5056615;28;20025;-31
2022/12/19 15:07:47;;;;;;;18.20;3.53;;;;;;;;;;5055845;28;20107;-31
2022/12/19 15:10:18;;;;;;;21.30;3.75;;;;;;;;;;5055869;28;20021;-31
2022/12/19 15:15:46;;;;;;;25.13;4.18;;;;;;;;;;5055833;28;20044;-31
2022/12/19 15:18:23;;;;;;;22.00;4.63;;;;;;;;;;5056078;28;20041;-32
2022/12/19 15:20:50;;;;;;;13.63;3.58;;;;;;;;;;5055695;28;20029;-32